Red Desert, Wyoming
Current Conditions -  °F | °C
As of 4:08 AM on Wednesday 26 Nov 2014 (Local Time) from KRWL Reporting Station
Scattered Clouds Scattered Clouds  
Wind Chill: 23°   Ceiling: Unl
Heat Index: 36°   Visibility: 10mi
Dew Point: 31°   Wind: 29mph
Humidity: 82%   Direction: 260°W
Pressure: 30.07"   Gusts: 40mph
Location:  41.6289°N, 108.096°W
Report Text: KRWL 261108Z AUTO 26025G35KT 10SM FEW018 SCT035 02/M01 A3007 RMK AO2 PK WND 27035/1106 T00221006
Loading
Personal Weather Stations






























Interactive Weather Map New forecast layout! Learn more

10-Day Weather Forecast

Advertisements
Track Severe Weather on mobile